createdAt,value
2023-01-11T00:00:40.159Z,1.10
2023-01-11T00:01:40.186Z,1.10
2023-01-11T00:02:40.215Z,1.10
2023-01-11T00:03:40.101Z,1.60
2023-01-11T00:04:40.236Z,1.40
2023-01-11T00:05:40.075Z,1.60
2023-01-11T00:06:40.130Z,1.40
2023-01-11T00:07:40.170Z,1.60
2023-01-11T00:08:40.083Z,1.40
2023-01-11T00:09:40.050Z,1.50
2023-01-11T00:10:40.060Z,1.20
2023-01-11T00:11:40.096Z,1.10
2023-01-11T00:12:40.174Z,1.10
2023-01-11T00:13:39.994Z,1.20
2023-01-11T00:14:40.008Z,1.30
2023-01-11T00:15:40.049Z,1.60
2023-01-11T00:16:39.956Z,1.40
2023-01-11T00:17:39.973Z,1.20
2023-01-11T00:18:39.962Z,1.10
2023-01-11T00:19:39.931Z,1.20
2023-01-11T00:20:39.949Z,1.20
2023-01-11T00:21:39.910Z,1.30
2023-01-11T00:22:39.922Z,1.20
2023-01-11T00:23:39.896Z,1.20
2023-01-11T00:24:39.931Z,1.50
2023-01-11T00:25:39.874Z,1.00
2023-01-11T00:26:39.871Z,1.20
2023-01-11T00:27:39.832Z,1.30
2023-01-11T00:28:39.826Z,1.40
2023-01-11T00:29:39.806Z,1.40
2023-01-11T00:30:39.832Z,1.10
2023-01-11T00:31:39.874Z,1.30
2023-01-11T00:32:39.801Z,1.30
2023-01-11T00:33:39.765Z,1.50
2023-01-11T00:34:39.771Z,1.30
2023-01-11T00:35:39.782Z,1.40
2023-01-11T00:36:39.767Z,1.50
2023-01-11T00:37:39.741Z,1.10
2023-01-11T00:38:39.726Z,1.50
2023-01-11T00:39:39.705Z,1.10
2023-01-11T00:40:39.705Z,1.40
2023-01-11T00:41:39.686Z,1.40
2023-01-11T00:42:39.685Z,1.30
2023-01-11T00:43:39.661Z,1.20
2023-01-11T00:44:39.645Z,1.30
2023-01-11T00:45:39.652Z,1.30
2023-01-11T00:46:39.646Z,1.50
2023-01-11T00:47:39.640Z,1.40
2023-01-11T00:48:39.600Z,1.50
2023-01-11T00:49:39.595Z,1.40
2023-01-11T00:50:39.600Z,1.40
2023-01-11T00:51:39.583Z,1.10
2023-01-11T00:52:39.550Z,1.60
2023-01-11T00:53:39.552Z,1.60
2023-01-11T00:54:39.536Z,1.40
2023-01-11T00:55:39.532Z,1.70
2023-01-11T00:56:39.555Z,1.30
2023-01-11T00:57:39.506Z,1.40
2023-01-11T00:58:39.524Z,1.50
2023-01-11T00:59:39.670Z,1.30
2023-01-11T01:00:39.492Z,1.40
2023-01-11T01:01:39.498Z,1.30
2023-01-11T01:02:39.473Z,1.30
2023-01-11T01:03:39.452Z,1.50
2023-01-11T01:04:39.424Z,1.40
2023-01-11T01:05:39.413Z,1.30
2023-01-11T01:06:39.428Z,1.40
2023-01-11T01:07:39.385Z,1.50
2023-01-11T01:08:39.417Z,1.40
2023-01-11T01:09:39.380Z,1.50
2023-01-11T01:10:39.383Z,1.40
2023-01-11T01:11:39.350Z,1.40
2023-01-11T01:12:39.357Z,1.40
2023-01-11T01:13:39.327Z,1.20
2023-01-11T01:14:39.344Z,1.10
2023-01-11T01:15:39.327Z,1.20
2023-01-11T01:16:39.315Z,1.50
2023-01-11T01:17:39.277Z,1.50
2023-01-11T01:18:39.270Z,1.60
2023-01-11T01:19:39.275Z,1.40
2023-01-11T01:20:39.255Z,1.70
2023-01-11T01:21:39.236Z,1.20
2023-01-11T01:22:39.247Z,1.40
2023-01-11T01:23:39.222Z,1.30
2023-01-11T01:24:39.198Z,1.40
2023-01-11T01:25:39.219Z,1.10
2023-01-11T01:26:39.185Z,1.70
2023-01-11T01:27:39.161Z,1.30
2023-01-11T01:28:39.150Z,1.20
2023-01-11T01:29:39.146Z,1.20
2023-01-11T01:30:39.155Z,1.20
2023-01-11T01:31:39.133Z,1.40
2023-01-11T01:32:39.109Z,1.40
2023-01-11T01:33:39.098Z,1.20
2023-01-11T01:34:39.110Z,1.10
2023-01-11T01:35:39.105Z,1.20
2023-01-11T01:36:39.068Z,1.40
2023-01-11T01:37:39.050Z,1.10
2023-01-11T01:38:39.064Z,1.10
2023-01-11T01:39:39.060Z,1.30
2023-01-11T01:40:39.032Z,1.30
2023-01-11T01:41:38.998Z,1.20
2023-01-11T01:42:38.996Z,1.20
2023-01-11T01:43:38.997Z,1.10
2023-01-11T01:44:39.002Z,1.00
2023-01-11T01:45:39.005Z,1.20
2023-01-11T01:46:39.007Z,1.50
2023-01-11T01:47:38.950Z,1.20
2023-01-11T01:48:38.930Z,1.00
2023-01-11T01:49:38.925Z,0.90
2023-01-11T01:50:38.944Z,1.10
2023-01-11T01:51:38.903Z,1.00
2023-01-11T01:52:38.888Z,1.10
2023-01-11T01:53:38.881Z,1.20
2023-01-11T01:54:38.880Z,1.10
2023-01-11T01:55:38.872Z,1.10
2023-01-11T01:56:38.841Z,1.10
2023-01-11T01:57:38.849Z,1.20
2023-01-11T01:58:38.853Z,1.00
2023-01-11T01:59:38.857Z,1.20
2023-01-11T02:00:38.822Z,0.90
2023-01-11T02:01:38.840Z,1.00
2023-01-11T02:02:38.799Z,1.40
2023-01-11T02:03:38.771Z,1.20
2023-01-11T02:04:38.778Z,1.00
2023-01-11T02:05:38.872Z,1.10
2023-01-11T02:06:38.822Z,1.20
2023-01-11T02:07:38.751Z,1.00
2023-01-11T02:08:38.744Z,1.30
2023-01-11T02:09:38.771Z,1.00
2023-01-11T02:10:38.705Z,1.10
2023-01-11T02:11:38.670Z,1.40
2023-01-11T02:12:38.667Z,1.10
2023-01-11T02:13:38.666Z,1.10
2023-01-11T02:14:38.675Z,1.10
2023-01-11T02:15:38.753Z,1.10
2023-01-11T02:16:38.635Z,1.20
2023-01-11T02:17:38.638Z,1.00
2023-01-11T02:18:38.617Z,1.20
2023-01-11T02:19:38.592Z,1.20
2023-01-11T02:20:38.606Z,1.20
2023-01-11T02:21:38.560Z,1.10
2023-01-11T02:22:38.642Z,1.20
2023-01-11T02:23:38.548Z,1.30
2023-01-11T02:24:38.548Z,1.20
2023-01-11T02:25:38.517Z,1.30
2023-01-11T02:26:38.536Z,1.10
2023-01-11T02:27:38.517Z,1.10
2023-01-11T02:28:38.524Z,1.20
2023-01-11T02:29:38.478Z,1.20
2023-01-11T02:30:38.470Z,1.30
2023-01-11T02:31:38.486Z,1.10
2023-01-11T02:32:38.552Z,1.20
2023-01-11T02:33:38.460Z,1.20
2023-01-11T02:34:38.421Z,1.30
2023-01-11T02:35:38.451Z,1.20
2023-01-11T02:36:38.407Z,1.30
2023-01-11T02:37:38.392Z,1.20
2023-01-11T02:38:38.381Z,1.30
2023-01-11T02:39:38.402Z,1.30
2023-01-11T02:40:38.378Z,1.10
2023-01-11T02:41:38.350Z,1.30
2023-01-11T02:42:38.349Z,1.30
2023-01-11T02:43:38.337Z,1.40
2023-01-11T02:44:38.356Z,1.20
2023-01-11T02:45:38.469Z,1.30
2023-01-11T02:46:38.342Z,1.50
2023-01-11T02:47:38.295Z,1.50
2023-01-11T02:48:38.323Z,1.60
2023-01-11T02:49:38.261Z,1.30
2023-01-11T02:50:38.246Z,1.20
2023-01-11T02:51:38.228Z,1.60
2023-01-11T02:52:38.249Z,1.30
2023-01-11T02:53:38.213Z,1.40
2023-01-11T02:54:38.203Z,1.30
2023-01-11T02:55:38.271Z,1.50
2023-01-11T02:56:38.174Z,1.40
2023-01-11T02:57:38.173Z,1.40
2023-01-11T02:58:38.190Z,1.70
2023-01-11T02:59:38.152Z,1.40
2023-01-11T03:00:38.161Z,1.10
2023-01-11T03:01:38.193Z,1.20
2023-01-11T03:02:38.178Z,1.10
2023-01-11T03:03:38.107Z,1.40
2023-01-11T03:04:38.114Z,1.30
2023-01-11T03:05:38.116Z,1.40
2023-01-11T03:06:38.202Z,1.50
2023-01-11T03:07:38.060Z,1.50
2023-01-11T03:08:38.046Z,1.20
2023-01-11T03:09:38.031Z,1.20
2023-01-11T03:10:38.040Z,1.60
2023-01-11T03:11:38.005Z,1.40
2023-01-11T03:12:38.023Z,1.40
2023-01-11T03:13:37.985Z,1.20
2023-01-11T03:14:37.990Z,1.30
2023-01-11T03:15:38.012Z,1.40
2023-01-11T03:16:37.983Z,1.30
2023-01-11T03:17:37.944Z,1.30
2023-01-11T03:18:37.955Z,1.00
2023-01-11T03:19:37.916Z,1.60
2023-01-11T03:20:37.921Z,1.50
2023-01-11T03:21:37.919Z,1.20
2023-01-11T03:22:37.914Z,1.30
2023-01-11T03:23:37.893Z,1.40
2023-01-11T03:24:37.865Z,1.40
2023-01-11T03:25:37.896Z,1.50
2023-01-11T03:26:37.854Z,1.40
2023-01-11T03:27:37.875Z,1.20
2023-01-11T03:28:37.883Z,1.30
2023-01-11T03:29:37.828Z,1.40
2023-01-11T03:30:37.826Z,1.20
2023-01-11T03:31:37.836Z,1.40
2023-01-11T03:32:37.776Z,1.50
2023-01-11T03:33:37.788Z,1.40
2023-01-11T03:34:37.801Z,1.10
2023-01-11T03:35:37.747Z,1.30
2023-01-11T03:36:37.765Z,1.00
2023-01-11T03:37:37.732Z,1.60
2023-01-11T03:38:37.728Z,1.20
2023-01-11T03:39:37.699Z,1.40
2023-01-11T03:40:37.709Z,1.30
2023-01-11T03:41:37.717Z,1.60
2023-01-11T03:42:37.673Z,1.20
2023-01-11T03:43:37.650Z,1.20
2023-01-11T03:44:37.646Z,1.30
2023-01-11T03:45:37.636Z,1.30
2023-01-11T03:46:37.729Z,1.10
2023-01-11T03:47:37.602Z,2.00
2023-01-11T03:48:37.608Z,1.20
2023-01-11T03:49:37.669Z,1.50
2023-01-11T03:50:37.573Z,1.50
2023-01-11T03:51:37.576Z,1.60
2023-01-11T03:52:37.542Z,1.60
2023-01-11T03:53:37.538Z,1.40
2023-01-11T03:54:37.553Z,1.50
2023-01-11T03:55:37.521Z,1.30
2023-01-11T03:56:37.546Z,1.50
2023-01-11T03:57:37.499Z,1.20
2023-01-11T03:58:37.483Z,1.50
2023-01-11T03:59:37.471Z,1.80
2023-01-11T04:00:37.555Z,1.40
2023-01-11T04:01:37.502Z,1.70
2023-01-11T04:02:37.507Z,1.20
2023-01-11T04:03:37.458Z,1.60
2023-01-11T04:04:37.476Z,1.40
2023-01-11T04:05:37.412Z,1.40
2023-01-11T04:06:37.422Z,1.40
2023-01-11T04:07:37.381Z,1.40
2023-01-11T04:08:37.412Z,1.30
2023-01-11T04:09:38.300Z,1.50
2023-01-11T04:10:37.350Z,1.40
2023-01-11T04:11:37.347Z,1.50
2023-01-11T04:12:37.361Z,1.90
2023-01-11T04:13:37.357Z,1.30
2023-01-11T04:14:37.311Z,1.40
2023-01-11T04:15:37.337Z,1.70
2023-01-11T04:16:37.328Z,1.20
2023-01-11T04:17:37.280Z,1.40
2023-01-11T04:18:37.293Z,1.30
2023-01-11T04:19:37.284Z,1.60
2023-01-11T04:20:37.253Z,1.60
2023-01-11T04:21:37.229Z,1.40
2023-01-11T04:22:37.222Z,1.50
2023-01-11T04:23:37.257Z,1.50
2023-01-11T04:24:37.226Z,1.40
2023-01-11T04:25:37.224Z,1.50
2023-01-11T04:26:37.194Z,1.40
2023-01-11T04:27:37.162Z,1.30
2023-01-11T04:28:37.172Z,1.80
2023-01-11T04:29:37.165Z,1.50
2023-01-11T04:30:37.137Z,1.30
2023-01-11T04:31:37.232Z,1.30
2023-01-11T04:32:37.129Z,1.60
2023-01-11T04:33:37.122Z,1.60
2023-01-11T04:34:37.140Z,1.40
2023-01-11T04:35:37.092Z,1.40
2023-01-11T04:36:37.067Z,1.40
2023-01-11T04:37:37.083Z,1.50
2023-01-11T04:38:37.168Z,1.40
2023-01-11T04:39:37.098Z,1.60
2023-01-11T04:40:37.051Z,1.50
2023-01-11T04:41:37.033Z,1.40
2023-01-11T04:42:36.995Z,1.20
2023-01-11T04:43:37.013Z,1.30
2023-01-11T04:44:37.017Z,1.20
2023-01-11T04:45:36.998Z,1.40
2023-01-11T04:46:36.955Z,1.20
2023-01-11T04:47:37.023Z,1.30
2023-01-11T04:48:36.934Z,1.20
2023-01-11T04:49:36.937Z,1.30
2023-01-11T04:50:37.023Z,1.60
2023-01-11T04:51:36.911Z,1.30
2023-01-11T04:52:36.886Z,1.60
2023-01-11T04:53:36.969Z,1.20
2023-01-11T04:54:36.920Z,1.30
2023-01-11T04:55:36.867Z,1.50
2023-01-11T04:56:36.835Z,1.30
2023-01-11T04:57:36.839Z,1.40
2023-01-11T04:58:38.206Z,1.00
2023-01-11T04:59:36.852Z,1.40
2023-01-11T05:00:36.807Z,1.30
2023-01-11T05:02:44.839Z,1.30
2023-01-11T05:03:36.752Z,1.30
2023-01-11T05:04:36.813Z,1.10
2023-01-11T05:05:36.753Z,1.40
2023-01-11T05:06:36.781Z,1.40
2023-01-11T05:07:36.716Z,1.30
2023-01-11T05:08:36.698Z,1.60
2023-01-11T05:09:36.692Z,1.50
2023-01-11T05:10:36.701Z,1.20
2023-01-11T05:11:36.689Z,1.50
2023-01-11T05:12:36.655Z,1.40
2023-01-11T05:13:36.653Z,1.20
2023-01-11T05:14:36.666Z,1.30
2023-01-11T05:15:36.628Z,1.40
2023-01-11T05:16:36.666Z,1.20
2023-01-11T05:17:36.610Z,1.20
2023-01-11T05:18:36.620Z,1.20
2023-01-11T05:19:36.623Z,1.30
2023-01-11T05:20:36.566Z,1.10
2023-01-11T05:21:36.554Z,1.40
2023-01-11T05:22:36.600Z,1.30
2023-01-11T05:23:36.552Z,1.30
2023-01-11T05:24:36.550Z,1.10
2023-01-11T05:25:36.516Z,1.10
2023-01-11T05:26:36.534Z,1.30
2023-01-11T05:27:36.502Z,1.40
2023-01-11T05:28:36.493Z,1.40
2023-01-11T05:29:36.495Z,1.10
2023-01-11T05:30:36.455Z,1.00
2023-01-11T05:31:36.506Z,1.70
2023-01-11T05:32:36.471Z,1.40
2023-01-11T05:33:36.433Z,1.30
2023-01-11T05:34:36.421Z,1.50
2023-01-11T05:35:36.400Z,1.30
2023-01-11T05:36:36.393Z,1.20
2023-01-11T05:37:36.452Z,1.70
2023-01-11T05:38:36.400Z,1.20
2023-01-11T05:39:36.366Z,1.40
2023-01-11T05:40:36.352Z,1.40
2023-01-11T05:41:36.382Z,1.30
2023-01-11T05:42:36.352Z,1.20
2023-01-11T05:43:36.322Z,1.20
2023-01-11T05:44:36.305Z,1.30
2023-01-11T05:45:36.344Z,1.40
2023-01-11T05:46:36.311Z,1.00
2023-01-11T05:47:36.269Z,1.30
2023-01-11T05:48:36.260Z,1.30
2023-01-11T05:49:36.258Z,1.10
2023-01-11T05:50:36.268Z,1.10
2023-01-11T05:51:36.248Z,1.40
2023-01-11T05:52:36.219Z,1.20
2023-01-11T05:53:36.215Z,1.00
2023-01-11T05:54:36.234Z,1.10
2023-01-11T05:55:36.308Z,1.20
2023-01-11T05:56:36.221Z,1.00
2023-01-11T05:57:36.164Z,1.40
2023-01-11T05:58:36.147Z,1.20
2023-01-11T05:59:36.169Z,1.40
2023-01-11T06:00:36.138Z,1.10
2023-01-11T06:01:36.128Z,1.20
2023-01-11T06:02:36.353Z,1.00
2023-01-11T06:03:36.114Z,0.90
2023-01-11T06:04:36.082Z,1.40
2023-01-11T06:05:36.100Z,1.30
2023-01-11T06:06:36.119Z,1.20
2023-01-11T06:07:36.067Z,1.20
2023-01-11T06:08:36.039Z,1.00
2023-01-11T06:09:36.018Z,1.40
2023-01-11T06:10:36.051Z,1.10
2023-01-11T06:11:36.013Z,1.00
2023-01-11T06:12:36.016Z,1.30
2023-01-11T06:13:35.981Z,1.20
2023-01-11T06:14:38.172Z,1.20
2023-01-11T06:15:35.976Z,1.10
2023-01-11T06:16:35.996Z,1.20
2023-01-11T06:17:35.939Z,1.20
2023-01-11T06:18:35.948Z,1.00
2023-01-11T06:19:35.940Z,1.20
2023-01-11T06:20:35.922Z,0.80
2023-01-11T06:21:35.902Z,1.00
2023-01-11T06:22:35.900Z,1.00
2023-01-11T06:23:35.894Z,0.90
2023-01-11T06:24:35.885Z,1.00
2023-01-11T06:25:35.879Z,1.20
2023-01-11T06:26:35.885Z,0.90
2023-01-11T06:27:35.823Z,0.80
2023-01-11T06:28:35.820Z,1.00
2023-01-11T06:29:35.822Z,1.00
2023-01-11T06:30:35.883Z,1.00
2023-01-11T06:31:35.809Z,0.90
2023-01-11T06:32:35.766Z,0.90
2023-01-11T06:33:35.759Z,1.10
2023-01-11T06:34:35.747Z,0.80
2023-01-11T06:35:35.906Z,1.00
2023-01-11T06:36:35.725Z,0.90
2023-01-11T06:37:35.714Z,0.80
2023-01-11T06:38:35.705Z,0.80
2023-01-11T06:39:35.711Z,1.20
2023-01-11T06:40:35.709Z,1.10
2023-01-11T06:41:35.670Z,1.00
2023-01-11T06:42:35.674Z,0.90
2023-01-11T06:43:35.717Z,1.20
2023-01-11T06:44:35.644Z,1.20
2023-01-11T06:45:35.646Z,0.90
2023-01-11T06:46:35.678Z,1.00
2023-01-11T06:47:35.613Z,1.00
2023-01-11T06:48:35.593Z,1.10
2023-01-11T06:49:35.588Z,1.00
2023-01-11T06:50:35.569Z,1.00
2023-01-11T06:51:35.598Z,0.80
2023-01-11T06:52:35.560Z,0.90
2023-01-11T06:53:35.540Z,1.10
2023-01-11T06:54:35.550Z,1.20
2023-01-11T06:55:35.517Z,1.00
2023-01-11T06:56:35.520Z,1.00
2023-01-11T06:57:35.493Z,1.10
2023-01-11T06:58:35.501Z,1.00
2023-01-11T06:59:35.494Z,1.20
2023-01-11T07:00:35.486Z,1.20
2023-01-11T07:01:35.548Z,1.10
2023-01-11T07:02:35.451Z,1.20
2023-01-11T07:03:35.423Z,1.00
2023-01-11T07:04:35.423Z,0.90
2023-01-11T07:05:35.548Z,1.10
2023-01-11T07:06:35.419Z,1.20
2023-01-11T07:07:35.383Z,1.10
2023-01-11T07:08:35.375Z,1.10
2023-01-11T07:09:35.366Z,1.20
2023-01-11T07:10:35.355Z,1.20
2023-01-11T07:11:35.370Z,1.30
2023-01-11T07:12:35.349Z,1.10
2023-01-11T07:13:35.361Z,1.10
2023-01-11T07:14:35.392Z,1.10
2023-01-11T07:15:35.388Z,1.20
2023-01-11T07:16:35.283Z,1.20
2023-01-11T07:17:35.295Z,1.30
2023-01-11T07:18:35.306Z,1.40
2023-01-11T07:19:35.249Z,1.20
2023-01-11T07:20:35.365Z,1.20
2023-01-11T07:21:35.234Z,1.20
2023-01-11T07:22:35.225Z,1.10
2023-01-11T07:23:35.226Z,1.10
2023-01-11T07:24:35.227Z,1.50
2023-01-11T07:25:35.206Z,1.30
2023-01-11T07:26:35.182Z,1.10
2023-01-11T07:27:35.181Z,1.00
2023-01-11T07:28:35.166Z,1.20
2023-01-11T07:29:35.134Z,1.00
2023-01-11T07:30:47.925Z,1.10
2023-01-11T07:31:36.162Z,1.50
2023-01-11T07:32:35.109Z,1.70
2023-01-11T07:33:35.131Z,1.50
2023-01-11T07:34:35.239Z,1.00
2023-01-11T07:35:35.102Z,1.10
2023-01-11T07:36:35.074Z,1.00
2023-01-11T07:37:35.050Z,0.90
2023-01-11T07:38:35.052Z,1.30
2023-01-11T07:39:43.427Z,1.10
2023-01-11T07:40:36.039Z,1.40
2023-01-11T07:41:35.006Z,1.10
2023-01-11T07:42:34.990Z,1.20
2023-01-11T07:43:34.992Z,1.20
2023-01-11T07:44:35.028Z,1.10
2023-01-11T07:45:45.273Z,1.30
2023-01-11T07:46:36.136Z,1.40
2023-01-11T07:47:34.941Z,1.30
2023-01-11T07:48:34.923Z,1.30
2023-01-11T07:49:34.926Z,1.40
2023-01-11T07:50:34.903Z,1.20
2023-01-11T07:51:34.949Z,1.20
2023-01-11T07:52:34.898Z,1.20
2023-01-11T07:53:34.872Z,1.50
2023-01-11T07:54:34.919Z,1.30
2023-01-11T07:55:34.856Z,1.20
2023-01-11T07:56:34.861Z,1.30
2023-01-11T07:57:34.835Z,1.30
2023-01-11T07:58:34.816Z,1.40
2023-01-11T07:59:34.807Z,1.30
2023-01-11T08:00:34.833Z,1.30
2023-01-11T08:01:34.913Z,1.30
2023-01-11T08:02:34.917Z,1.30
2023-01-11T08:03:34.894Z,1.20
2023-01-11T08:04:34.745Z,1.20
2023-01-11T08:05:34.758Z,1.30
2023-01-11T08:06:34.740Z,1.40
2023-01-11T08:07:34.720Z,1.50
2023-01-11T08:08:34.712Z,1.30
2023-01-11T08:09:34.723Z,1.40
2023-01-11T08:10:34.685Z,1.20
2023-01-11T08:11:34.685Z,1.30
2023-01-11T08:12:34.669Z,1.20
2023-01-11T08:13:34.657Z,1.30
2023-01-11T08:14:34.666Z,1.20
2023-01-11T08:15:34.678Z,1.30
2023-01-11T08:16:34.630Z,1.30
2023-01-11T08:17:34.611Z,1.50
2023-01-11T08:18:34.648Z,1.20
2023-01-11T08:19:34.595Z,1.50
2023-01-11T08:20:34.584Z,1.50
2023-01-11T08:21:34.571Z,1.30
2023-01-11T08:22:34.562Z,1.50
2023-01-11T08:23:34.576Z,1.30
2023-01-11T08:24:34.538Z,1.20
2023-01-11T08:25:34.561Z,1.30
2023-01-11T08:26:34.534Z,1.30
2023-01-11T08:27:34.501Z,1.30
2023-01-11T08:28:34.514Z,1.40
2023-01-11T08:29:34.541Z,1.10
2023-01-11T08:30:34.507Z,1.20
2023-01-11T08:31:34.458Z,1.30
2023-01-11T08:32:34.451Z,1.30
2023-01-11T08:33:34.458Z,1.50
2023-01-11T08:34:34.618Z,1.30
2023-01-11T08:35:34.418Z,1.40
2023-01-11T08:36:34.403Z,1.20
2023-01-11T08:37:34.412Z,1.50
2023-01-11T08:38:34.375Z,1.50
2023-01-11T08:39:34.373Z,1.30
2023-01-11T08:40:34.371Z,1.30
2023-01-11T08:41:34.353Z,1.30
2023-01-11T08:42:34.334Z,1.10
2023-01-11T08:43:34.321Z,1.10
2023-01-11T08:44:34.932Z,1.10
2023-01-11T08:45:34.297Z,1.10
2023-01-11T08:46:34.382Z,1.00
2023-01-11T08:47:34.275Z,1.20
2023-01-11T08:48:34.265Z,1.30
2023-01-11T08:49:34.279Z,1.30
2023-01-11T08:50:34.290Z,1.40
2023-01-11T08:51:34.230Z,1.40
2023-01-11T08:52:34.230Z,1.40
2023-01-11T08:53:34.210Z,1.10
2023-01-11T08:54:34.201Z,1.00
2023-01-11T08:55:34.193Z,1.20
2023-01-11T08:56:34.203Z,1.10
2023-01-11T08:57:34.192Z,1.20
2023-01-11T08:58:34.156Z,1.40
2023-01-11T08:59:34.159Z,1.20
2023-01-11T09:00:34.156Z,1.10
2023-01-11T09:01:34.210Z,1.00
2023-01-11T09:02:34.239Z,1.20
2023-01-11T09:03:34.144Z,1.20
2023-01-11T09:04:34.083Z,1.30
2023-01-11T09:05:34.078Z,1.80
2023-01-11T09:06:34.121Z,1.30
2023-01-11T09:07:34.059Z,1.20
2023-01-11T09:08:34.066Z,1.10
2023-01-11T09:09:34.027Z,1.30
2023-01-11T09:10:34.034Z,1.20
2023-01-11T09:11:34.018Z,1.20
2023-01-11T09:12:34.007Z,1.20
2023-01-11T09:13:33.992Z,1.00
2023-01-11T09:14:33.994Z,1.10
2023-01-11T09:15:33.973Z,1.10
2023-01-11T09:16:33.990Z,1.10
2023-01-11T09:17:33.939Z,1.10
2023-01-11T09:18:33.935Z,1.00
2023-01-11T09:19:33.940Z,1.20
2023-01-11T09:20:33.941Z,1.00
2023-01-11T09:21:33.928Z,1.20
2023-01-11T09:22:33.909Z,1.00
2023-01-11T09:23:33.887Z,1.10
2023-01-11T09:24:33.869Z,1.10
2023-01-11T09:25:33.858Z,1.00
2023-01-11T09:26:33.874Z,1.00
2023-01-11T09:27:33.832Z,1.20
2023-01-11T09:28:33.820Z,0.90
2023-01-11T09:29:36.863Z,0.90
2023-01-11T09:30:33.801Z,0.90
2023-01-11T09:31:33.824Z,1.00
2023-01-11T09:32:33.783Z,1.10
2023-01-11T09:33:33.769Z,1.10
2023-01-11T09:34:33.777Z,1.30
2023-01-11T09:35:33.760Z,1.00
2023-01-11T09:36:33.731Z,1.10
2023-01-11T09:37:33.725Z,1.10
2023-01-11T09:38:33.807Z,1.10
2023-01-11T09:39:33.697Z,0.90
2023-01-11T09:40:33.688Z,1.00
2023-01-11T09:41:33.705Z,0.80
2023-01-11T09:42:33.664Z,0.80
2023-01-11T09:43:33.652Z,0.90
2023-01-11T09:44:33.641Z,0.90
2023-01-11T09:45:33.639Z,0.90
2023-01-11T09:46:33.717Z,0.80
2023-01-11T09:47:33.652Z,1.00
2023-01-11T09:48:33.627Z,0.80
2023-01-11T09:49:33.605Z,1.00
2023-01-11T09:50:33.615Z,1.00
2023-01-11T09:51:33.573Z,0.90
2023-01-11T09:52:33.576Z,0.80
2023-01-11T09:53:33.567Z,0.80
2023-01-11T09:54:33.585Z,0.80
2023-01-11T09:55:33.538Z,0.90
2023-01-11T09:56:33.515Z,0.70
2023-01-11T09:57:33.508Z,0.80
2023-01-11T09:58:33.516Z,0.90
2023-01-11T09:59:33.485Z,0.90
2023-01-11T10:00:33.528Z,0.80
2023-01-11T10:01:33.479Z,0.90
2023-01-11T10:02:33.444Z,0.90
2023-01-11T10:03:33.439Z,0.80
2023-01-11T10:04:33.517Z,0.80
2023-01-11T10:05:33.411Z,0.70
2023-01-11T10:06:33.452Z,0.70
2023-01-11T10:07:33.474Z,0.70
2023-01-11T10:18:25.526Z,0.40
2023-01-11T10:18:26.398Z,0.50
2023-01-11T10:18:27.916Z,0.40
2023-01-11T10:18:42.559Z,0.60
2023-01-11T10:18:53.802Z,0.60
2023-01-11T10:19:39.945Z,0.60
2023-01-11T10:20:34.299Z,0.50
2023-01-11T10:21:33.284Z,0.60
2023-01-11T10:22:33.248Z,0.60
2023-01-11T10:23:33.237Z,0.40
2023-01-11T10:24:33.224Z,0.50
2023-01-11T10:25:33.230Z,0.70
2023-01-11T10:26:33.198Z,0.50
2023-01-11T10:27:33.278Z,0.60
2023-01-11T10:28:33.176Z,0.40
2023-01-11T10:29:33.149Z,0.60
2023-01-11T10:30:33.148Z,0.50
2023-01-11T10:31:33.163Z,0.60
2023-01-11T10:32:33.120Z,0.40
2023-01-11T10:33:33.131Z,0.50
2023-01-11T10:34:33.095Z,0.50
2023-01-11T10:35:33.081Z,0.70
2023-01-11T10:36:33.095Z,0.50
2023-01-11T10:37:33.056Z,0.50
2023-01-11T10:38:33.076Z,0.50
2023-01-11T10:39:33.030Z,0.60
2023-01-11T10:40:33.035Z,0.60
2023-01-11T10:41:33.012Z,0.60
2023-01-11T10:42:33.034Z,0.50
2023-01-11T10:43:33.005Z,0.70
2023-01-11T10:44:33.004Z,0.80
2023-01-11T10:45:33.048Z,0.70
2023-01-11T10:46:32.984Z,0.80
2023-01-11T10:47:32.950Z,0.70
2023-01-11T10:48:32.971Z,0.70
2023-01-11T10:49:34.571Z,0.60
2023-01-11T10:50:32.921Z,0.70
2023-01-11T10:51:32.901Z,0.70
2023-01-11T10:52:32.891Z,0.60
2023-01-11T10:53:32.910Z,0.80
2023-01-11T10:54:32.861Z,0.70
2023-01-11T10:56:32.842Z,0.60
2023-01-11T10:57:32.829Z,0.60
2023-01-11T10:58:32.842Z,0.70
2023-01-11T10:59:32.832Z,0.70
2023-01-11T11:00:32.865Z,0.70
2023-01-11T11:01:32.791Z,0.70
2023-01-11T11:02:40.836Z,0.80
2023-01-11T11:03:32.778Z,0.70
2023-01-11T11:04:32.776Z,0.70
2023-01-11T11:05:32.759Z,0.80
2023-01-11T11:06:32.773Z,0.80
2023-01-11T11:07:32.784Z,0.70
2023-01-11T11:08:32.726Z,0.80
2023-01-11T11:09:32.718Z,0.80
2023-01-11T11:10:32.688Z,0.70
2023-01-11T11:11:32.670Z,0.80
2023-01-11T11:12:32.675Z,0.70
2023-01-11T11:13:32.690Z,0.80
2023-01-11T11:14:32.689Z,0.70
2023-01-11T11:15:32.636Z,0.90
2023-01-11T11:16:32.664Z,0.60
2023-01-11T11:17:32.623Z,0.80
2023-01-11T11:18:32.660Z,0.60
2023-01-11T11:19:32.630Z,0.60
2023-01-11T11:20:32.581Z,0.80
2023-01-11T11:21:32.559Z,0.80
2023-01-11T11:22:32.561Z,0.80
2023-01-11T11:23:32.580Z,0.70
2023-01-11T11:24:32.525Z,0.70
2023-01-11T11:25:32.554Z,0.80
2023-01-11T11:26:32.531Z,0.70
2023-01-11T11:27:32.504Z,0.70
2023-01-11T11:28:32.489Z,0.80
2023-01-11T11:29:32.485Z,0.50
2023-01-11T11:30:32.480Z,0.80
2023-01-11T11:31:32.501Z,0.70
2023-01-11T11:32:33.149Z,0.60
2023-01-11T11:33:32.428Z,0.80
2023-01-11T11:34:32.434Z,0.70
2023-01-11T11:35:32.408Z,0.60
2023-01-11T11:36:32.395Z,0.80
2023-01-11T11:37:32.443Z,0.70
2023-01-11T11:38:32.380Z,0.80
2023-01-11T11:39:32.376Z,0.90
2023-01-11T11:40:32.352Z,0.70
2023-01-11T11:41:32.332Z,0.70
2023-01-11T11:42:32.349Z,0.60
2023-01-11T11:43:32.342Z,0.80
2023-01-11T11:44:32.323Z,0.70
2023-01-11T11:45:32.419Z,0.80
2023-01-11T11:46:32.405Z,0.60
2023-01-11T11:47:32.266Z,0.50
2023-01-11T11:48:32.279Z,0.60
2023-01-11T11:49:32.242Z,0.60
2023-01-11T11:50:44.193Z,0.70
2023-01-11T11:51:33.222Z,0.60
2023-01-11T11:52:32.213Z,0.50
2023-01-11T11:53:32.221Z,0.60
2023-01-11T11:54:32.194Z,0.70
2023-01-11T11:55:32.178Z,0.70
2023-01-11T11:56:32.168Z,0.70
2023-01-11T11:57:32.151Z,0.70
2023-01-11T11:58:32.178Z,0.60
2023-01-11T11:59:32.189Z,0.60
2023-01-11T12:00:32.129Z,0.60
2023-01-11T12:01:32.117Z,0.70
2023-01-11T12:02:32.178Z,0.70
2023-01-11T12:03:32.095Z,0.80
2023-01-11T12:04:32.077Z,0.60
2023-01-11T12:05:32.097Z,0.70
2023-01-11T12:06:32.065Z,0.90
2023-01-11T12:07:34.271Z,0.90
2023-01-11T12:08:32.052Z,1.00
2023-01-11T12:09:32.051Z,0.80
2023-01-11T12:10:32.027Z,1.00
2023-01-11T12:11:32.028Z,0.90
2023-01-11T12:12:31.999Z,0.70
2023-01-11T12:13:31.979Z,1.00
2023-01-11T12:14:31.980Z,0.80
2023-01-11T12:15:31.978Z,0.70
2023-01-11T12:16:32.013Z,0.60
2023-01-11T12:17:31.999Z,0.80
2023-01-11T12:18:32.079Z,0.60
2023-01-11T12:19:31.919Z,0.80
2023-01-11T12:20:31.929Z,0.80
2023-01-11T12:21:31.906Z,0.90
2023-01-11T12:22:31.894Z,0.80
2023-01-11T12:23:31.870Z,0.70
2023-01-11T12:24:31.857Z,0.90
2023-01-11T12:25:31.873Z,0.80
2023-01-11T12:26:31.837Z,0.70
2023-01-11T12:27:31.842Z,0.90
2023-01-11T12:28:31.845Z,0.70
2023-01-11T12:29:31.816Z,0.80
2023-01-11T12:30:31.867Z,0.80
2023-01-11T12:31:31.805Z,0.60
2023-01-11T12:32:31.812Z,0.80
2023-01-11T12:33:31.757Z,0.60
2023-01-11T12:34:31.783Z,0.90
2023-01-11T12:35:31.765Z,0.70
2023-01-11T12:36:31.724Z,0.70
2023-01-11T12:37:31.708Z,0.80
2023-01-11T12:38:31.697Z,0.80
2023-01-11T12:39:31.685Z,1.00
2023-01-11T12:40:31.688Z,1.00
2023-01-11T12:41:31.703Z,0.90
2023-01-11T12:42:31.661Z,1.00
2023-01-11T12:43:31.644Z,0.70
2023-01-11T12:44:31.630Z,0.70
2023-01-11T12:45:31.619Z,0.60
2023-01-11T12:46:31.617Z,0.60
2023-01-11T12:47:31.638Z,0.60
2023-01-11T12:48:31.611Z,0.80
2023-01-11T12:49:31.578Z,0.90
2023-01-11T12:50:31.603Z,1.00
2023-01-11T12:51:31.586Z,0.80
2023-01-11T12:52:31.545Z,0.90
2023-01-11T12:53:31.559Z,0.80
2023-01-11T12:54:31.530Z,1.00
2023-01-11T12:55:31.509Z,1.10
2023-01-11T12:56:31.517Z,0.90
2023-01-11T12:57:31.493Z,0.80
2023-01-11T12:58:31.472Z,1.00
2023-01-11T12:59:31.481Z,0.90
2023-01-11T13:00:31.454Z,0.90
2023-01-11T13:01:31.492Z,0.90
2023-01-11T13:02:31.550Z,0.80
2023-01-11T13:03:31.414Z,1.00
2023-01-11T13:04:31.412Z,1.10
2023-01-11T13:05:31.403Z,1.00
2023-01-11T13:06:31.425Z,1.10
2023-01-11T13:07:31.435Z,1.00
2023-01-11T13:08:31.371Z,1.10
2023-01-11T13:09:31.365Z,1.10
2023-01-11T13:10:31.385Z,1.10
2023-01-11T13:11:31.342Z,1.00
2023-01-11T13:12:31.322Z,1.10
2023-01-11T13:13:31.306Z,1.20
2023-01-11T13:14:31.308Z,0.90
2023-01-11T13:15:34.228Z,0.80
2023-01-11T13:16:31.325Z,0.70
2023-01-11T13:17:31.287Z,0.80
2023-01-11T13:18:31.253Z,1.00
2023-01-11T13:19:31.239Z,1.00
2023-01-11T13:20:34.255Z,1.20
2023-01-11T13:21:32.237Z,2.50
2023-01-11T13:22:31.222Z,2.30
2023-01-11T13:23:31.225Z,1.80
2023-01-11T13:24:31.187Z,1.40
2023-01-11T13:25:31.205Z,1.40
2023-01-11T13:26:31.163Z,1.50